Time;durP1;ratioP1;P1;durP2;ratioP2;P2;SDS_P1;SDS_P2;PMS_P1;PMS_P2;Temp;Humidity;BMP_temperature;BMP_pressure;BME280_temperature;BME280_humidity;BME280_pressure;Samples;Min_cycle;Max_cycle;Signal;HPM_P1;HPM_P2
2022/05/13 00:01:34;;;;;;;1.27;0.90;;;;;;;;;;5055559;28;20210;-77
2022/05/13 00:03:59;;;;;;;4.38;0.90;;;;;;;;;;5072507;28;20025;-76
2022/05/13 00:06:25;;;;;;;1.42;0.77;;;;;;;;;;5072411;28;20135;-77
2022/05/13 00:08:50;;;;;;;1.90;1.00;;;;;;;;;;5073194;28;20033;-76
2022/05/13 00:11:16;;;;;;;11.00;1.20;;;;;;;;;;5072046;28;20024;-76
2022/05/13 00:13:41;;;;;;;1.70;0.90;;;;;;;;;;5072318;28;20390;-76
2022/05/13 00:16:07;;;;;;;2.63;0.85;;;;;;;;;;5073561;28;20388;-76
2022/05/13 00:18:33;;;;;;;1.65;1.00;;;;;;;;;;5073825;28;20029;-76
2022/05/13 00:20:59;;;;;;;1.50;0.70;;;;;;;;;;5055715;28;20044;-76
2022/05/13 00:23:25;;;;;;;1.10;0.65;;;;;;;;;;5072200;28;20032;-76
2022/05/13 00:25:51;;;;;;;3.05;0.80;;;;;;;;;;5072125;28;20028;-76
2022/05/13 00:28:16;;;;;;;1.08;0.90;;;;;;;;;;5055469;28;20119;-76
2022/05/13 00:30:48;;;;;;;1.17;0.77;;;;;;;;;;5073510;28;20032;-76
2022/05/13 00:33:14;;;;;;;3.20;0.90;;;;;;;;;;5073139;28;20134;-77
2022/05/13 00:35:39;;;;;;;1.95;1.10;;;;;;;;;;5072051;28;20379;-76
2022/05/13 00:38:05;;;;;;;1.92;1.17;;;;;;;;;;5073278;28;20031;-76
2022/05/13 00:40:31;;;;;;;0.70;0.70;;;;;;;;;;5071777;28;20368;-76
2022/05/13 00:43:02;;;;;;;3.17;0.80;;;;;;;;;;5071691;28;20028;-76
2022/05/13 00:45:28;;;;;;;1.75;0.70;;;;;;;;;;5071854;28;20031;-76
2022/05/13 00:47:54;;;;;;;2.30;0.70;;;;;;;;;;5071583;28;20028;-76
2022/05/13 00:50:19;;;;;;;1.50;0.70;;;;;;;;;;5071534;28;20493;-76
2022/05/13 00:52:48;;;;;;;2.08;0.88;;;;;;;;;;5071505;28;20045;-76
2022/05/13 00:55:20;;;;;;;1.73;0.77;;;;;;;;;;5054677;28;20024;-76
2022/05/13 00:57:46;;;;;;;1.48;0.90;;;;;;;;;;5071405;28;20052;-76
2022/05/13 01:00:14;;;;;;;0.77;0.70;;;;;;;;;;5072895;28;20071;-76
2022/05/13 01:02:43;;;;;;;1.15;0.80;;;;;;;;;;5071201;28;20463;-75
2022/05/13 01:05:10;;;;;;;1.33;0.77;;;;;;;;;;5071235;28;20032;-76
2022/05/13 01:07:35;;;;;;;0.75;0.75;;;;;;;;;;5070749;28;20320;-76
2022/05/13 01:10:04;;;;;;;1.48;0.75;;;;;;;;;;5071448;28;20107;-76
2022/05/13 01:12:33;;;;;;;3.25;0.80;;;;;;;;;;5071060;28;20493;-77
2022/05/13 01:15:05;;;;;;;1.83;0.80;;;;;;;;;;5070939;28;20032;-77
2022/05/13 01:20:23;;;;;;;1.92;0.60;;;;;;;;;;5071271;28;20129;-77
2022/05/13 01:22:58;;;;;;;0.90;0.70;;;;;;;;;;5071121;28;20386;-77
2022/05/13 01:25:25;;;;;;;1.15;0.90;;;;;;;;;;5071105;28;20021;-76
2022/05/13 01:27:52;;;;;;;2.22;0.90;;;;;;;;;;5054245;28;20099;-76
2022/05/13 01:30:21;;;;;;;1.60;0.80;;;;;;;;;;5072222;28;20016;-77
2022/05/13 01:32:46;;;;;;;1.20;0.77;;;;;;;;;;5054254;28;20107;-77
2022/05/13 01:35:13;;;;;;;2.30;1.20;;;;;;;;;;5070760;28;20087;-77
2022/05/13 01:37:38;;;;;;;1.50;0.80;;;;;;;;;;5054223;28;20056;-77
2022/05/13 01:40:05;;;;;;;1.10;0.60;;;;;;;;;;5053881;28;20117;-78
2022/05/13 01:42:31;;;;;;;2.28;0.90;;;;;;;;;;5071588;28;20025;-79
2022/05/13 01:44:57;;;;;;;2.10;0.90;;;;;;;;;;5070690;28;20028;-76
2022/05/13 01:47:23;;;;;;;1.77;0.88;;;;;;;;;;5070770;28;20082;-77
2022/05/13 01:49:49;;;;;;;2.88;0.65;;;;;;;;;;5070637;28;20099;-76
2022/05/13 01:52:14;;;;;;;5.05;1.23;;;;;;;;;;5071685;28;20075;-77
2022/05/13 01:54:39;;;;;;;2.75;0.90;;;;;;;;;;5053843;28;20047;-76
2022/05/13 01:57:05;;;;;;;2.47;0.70;;;;;;;;;;5071931;28;20028;-76
2022/05/13 01:59:31;;;;;;;4.07;1.10;;;;;;;;;;5071282;28;20052;-76
2022/05/13 02:01:56;;;;;;;2.83;0.80;;;;;;;;;;5070391;28;20036;-76
2022/05/13 02:04:22;;;;;;;1.20;0.80;;;;;;;;;;5071965;28;20040;-76
2022/05/13 02:06:47;;;;;;;1.80;0.70;;;;;;;;;;5053760;28;20116;-77
2022/05/13 02:09:13;;;;;;;2.88;0.80;;;;;;;;;;5071636;28;20070;-77
2022/05/13 02:11:39;;;;;;;1.48;0.70;;;;;;;;;;5071409;28;20032;-76
2022/05/13 02:14:05;;;;;;;2.53;1.13;;;;;;;;;;5070595;28;20119;-76
2022/05/13 02:16:30;;;;;;;3.85;0.80;;;;;;;;;;5070299;28;20029;-77
2022/05/13 02:18:57;;;;;;;1.38;0.90;;;;;;;;;;5071453;28;20035;-77
2022/05/13 02:21:22;;;;;;;1.63;0.70;;;;;;;;;;5074449;28;20082;-76
2022/05/13 02:23:48;;;;;;;3.08;0.95;;;;;;;;;;5074518;28;20036;-76
2022/05/13 02:26:16;;;;;;;0.77;0.70;;;;;;;;;;5074253;28;20036;-77
2022/05/13 02:28:42;;;;;;;1.05;0.70;;;;;;;;;;5057462;28;20111;-76
2022/05/13 02:31:08;;;;;;;1.17;0.90;;;;;;;;;;5074079;28;20075;-77
2022/05/13 02:33:34;;;;;;;1.70;0.80;;;;;;;;;;5074050;28;20112;-77
2022/05/13 02:36:00;;;;;;;2.15;0.80;;;;;;;;;;5074096;28;20028;-76
2022/05/13 02:38:26;;;;;;;3.03;1.02;;;;;;;;;;5075530;28;20035;-76
2022/05/13 02:43:36;;;;;;;;;;;;;;;;;;5075630;28;20137;-77
2022/05/13 02:46:02;;;;;;;2.50;0.90;;;;;;;;;;5075112;28;20007;-77
2022/05/13 02:48:27;;;;;;;4.47;1.00;;;;;;;;;;5073710;28;20090;-77
2022/05/13 02:50:53;;;;;;;1.48;0.65;;;;;;;;;;5075157;28;20020;-77
2022/05/13 02:53:19;;;;;;;2.05;0.80;;;;;;;;;;5056591;28;20127;-76
2022/05/13 02:55:44;;;;;;;3.50;1.02;;;;;;;;;;5073491;28;20024;-77
2022/05/13 02:58:10;;;;;;;1.08;0.70;;;;;;;;;;5075149;28;20032;-76
2022/05/13 03:00:35;;;;;;;1.75;0.85;;;;;;;;;;5074518;28;20048;-77
2022/05/13 03:03:01;;;;;;;2.53;1.00;;;;;;;;;;5073414;28;20024;-77
2022/05/13 03:05:27;;;;;;;1.63;0.75;;;;;;;;;;5073218;28;20032;-77
2022/05/13 03:07:53;;;;;;;1.02;0.73;;;;;;;;;;5074622;28;20390;-77
2022/05/13 03:10:18;;;;;;;1.33;0.82;;;;;;;;;;5073220;28;20115;-77
2022/05/13 03:12:44;;;;;;;2.13;1.05;;;;;;;;;;5073250;28;20028;-77
2022/05/13 03:15:10;;;;;;;1.13;0.98;;;;;;;;;;5073476;28;20125;-77
2022/05/13 03:17:36;;;;;;;1.95;0.80;;;;;;;;;;5073283;28;20079;-77
2022/05/13 03:20:05;;;;;;;1.95;0.98;;;;;;;;;;5056230;28;20436;-77
2022/05/13 03:22:30;;;;;;;2.75;1.17;;;;;;;;;;5074596;28;20021;-77
2022/05/13 03:24:56;;;;;;;1.67;1.10;;;;;;;;;;5074445;28;20487;-77
2022/05/13 03:27:21;;;;;;;1.83;0.88;;;;;;;;;;5073189;28;20115;-77
2022/05/13 03:29:46;;;;;;;1.58;0.85;;;;;;;;;;5073816;28;20035;-77
2022/05/13 03:32:12;;;;;;;1.67;0.80;;;;;;;;;;5072413;28;20439;-77
2022/05/13 03:34:40;;;;;;;3.33;1.05;;;;;;;;;;5074175;28;20025;-77
2022/05/13 03:37:05;;;;;;;1.75;0.93;;;;;;;;;;5074508;28;20036;-77
2022/05/13 03:39:31;;;;;;;3.78;1.50;;;;;;;;;;5074270;28;20047;-77
2022/05/13 03:41:56;;;;;;;4.78;1.15;;;;;;;;;;5072644;28;20534;-77
2022/05/13 03:44:22;;;;;;;2.10;0.98;;;;;;;;;;5074046;28;20036;-76
2022/05/13 03:46:47;;;;;;;2.38;1.10;;;;;;;;;;5074179;28;20036;-77
2022/05/13 03:49:13;;;;;;;3.40;1.10;;;;;;;;;;5072631;28;20029;-77
2022/05/13 03:51:38;;;;;;;3.13;1.00;;;;;;;;;;5072498;28;20025;-76
2022/05/13 03:54:04;;;;;;;2.85;0.95;;;;;;;;;;5072355;28;20437;-77
2022/05/13 03:56:30;;;;;;;2.72;1.00;;;;;;;;;;5055801;28;20036;-77
2022/05/13 03:58:56;;;;;;;1.88;0.95;;;;;;;;;;5055656;28;20532;-77
2022/05/13 04:01:21;;;;;;;4.68;1.20;;;;;;;;;;5072418;28;20025;-76
2022/05/13 04:03:47;;;;;;;2.92;0.90;;;;;;;;;;5072372;28;20029;-76
2022/05/13 04:08:58;;;;;;;2.55;0.88;;;;;;;;;;5073698;28;20039;-76
2022/05/13 04:11:29;;;;;;;2.63;1.13;;;;;;;;;;5072247;28;20095;-76
2022/05/13 04:16:39;;;;;;;;;;;;;;;;;;5073037;28;20105;-76
2022/05/13 04:19:04;;;;;;;4.10;1.35;;;;;;;;;;5072224;28;19938;-76
2022/05/13 04:21:33;;;;;;;5.45;1.30;;;;;;;;;;5055435;28;20029;-76
2022/05/13 04:24:01;;;;;;;3.85;1.50;;;;;;;;;;5073333;28;20062;-75
2022/05/13 04:26:27;;;;;;;8.65;1.73;;;;;;;;;;5073347;28;20095;-76
2022/05/13 04:28:54;;;;;;;6.68;1.55;;;;;;;;;;5073242;28;20112;-76
2022/05/13 04:31:22;;;;;;;7.72;1.90;;;;;;;;;;5055140;28;20517;-74
2022/05/13 04:33:49;;;;;;;5.55;1.60;;;;;;;;;;5072917;28;20035;-74
2022/05/13 04:36:15;;;;;;;2.50;1.38;;;;;;;;;;5056076;28;20032;-78
2022/05/13 04:38:40;;;;;;;3.58;1.40;;;;;;;;;;5074138;28;20028;-79
2022/05/13 04:43:50;;;;;;;3.83;1.30;;;;;;;;;;5072864;28;20405;-79
2022/05/13 04:46:17;;;;;;;8.70;1.48;;;;;;;;;;5055433;28;20032;-77
2022/05/13 04:48:43;;;;;;;5.97;1.20;;;;;;;;;;5072023;28;20039;-78
2022/05/13 04:51:10;;;;;;;7.35;1.88;;;;;;;;;;5071639;28;20021;-79
2022/05/13 04:53:37;;;;;;;4.03;1.92;;;;;;;;;;5071650;28;20053;-75
2022/05/13 04:56:07;;;;;;;3.55;1.17;;;;;;;;;;5071617;28;20028;-75
2022/05/13 04:58:33;;;;;;;4.70;1.25;;;;;;;;;;5054738;28;20028;-76
2022/05/13 05:00:59;;;;;;;5.82;1.80;;;;;;;;;;5072839;28;20031;-76
2022/05/13 05:03:29;;;;;;;6.35;1.80;;;;;;;;;;5071380;28;20389;-76
2022/05/13 05:05:57;;;;;;;6.45;1.73;;;;;;;;;;5071145;28;20102;-76
2022/05/13 05:08:23;;;;;;;8.63;1.60;;;;;;;;;;5072583;28;20436;-76
2022/05/13 05:10:49;;;;;;;4.28;1.63;;;;;;;;;;5071152;28;20043;-76
2022/05/13 05:13:28;;;;;;;4.45;1.48;;;;;;;;;;5072430;28;20344;-76
2022/05/13 05:15:55;;;;;;;3.55;1.30;;;;;;;;;;5054477;28;20025;-76
2022/05/13 05:18:20;;;;;;;8.20;1.52;;;;;;;;;;5071447;28;20035;-76
2022/05/13 05:20:46;;;;;;;3.97;1.90;;;;;;;;;;5054322;28;20115;-76
2022/05/13 05:23:18;;;;;;;4.82;1.77;;;;;;;;;;5071334;28;20036;-76
2022/05/13 05:25:45;;;;;;;3.45;1.35;;;;;;;;;;5055039;28;20025;-76
2022/05/13 05:28:11;;;;;;;8.20;1.83;;;;;;;;;;5072380;28;20153;-76
2022/05/13 05:30:37;;;;;;;3.25;1.35;;;;;;;;;;5054687;28;20056;-76
2022/05/13 05:33:02;;;;;;;6.65;1.60;;;;;;;;;;5070986;28;20032;-76
2022/05/13 05:35:29;;;;;;;6.50;1.65;;;;;;;;;;5072097;28;20479;-76
2022/05/13 05:37:54;;;;;;;5.90;1.45;;;;;;;;;;5072484;28;20067;-76
2022/05/13 05:40:20;;;;;;;4.38;1.52;;;;;;;;;;5054012;28;20427;-77
2022/05/13 05:42:45;;;;;;;4.20;1.52;;;;;;;;;;5053968;28;20127;-76
2022/05/13 05:45:13;;;;;;;4.05;1.77;;;;;;;;;;5070904;28;20097;-76
2022/05/13 05:47:38;;;;;;;2.85;1.25;;;;;;;;;;5054087;28;20043;-77
2022/05/13 05:50:06;;;;;;;4.45;1.55;;;;;;;;;;5072109;28;20029;-76
2022/05/13 05:52:32;;;;;;;5.53;1.52;;;;;;;;;;5070332;28;20127;-76
2022/05/13 05:58:02;;;;;;;4.03;1.42;;;;;;;;;;5071040;28;20039;-76
2022/05/13 06:00:29;;;;;;;5.05;1.70;;;;;;;;;;5070700;28;20029;-76
2022/05/13 06:02:54;;;;;;;3.70;1.60;;;;;;;;;;5070711;28;20033;-76
2022/05/13 06:05:20;;;;;;;2.97;1.40;;;;;;;;;;5053991;28;20032;-77
2022/05/13 06:07:46;;;;;;;8.60;1.70;;;;;;;;;;5071713;28;20495;-76
2022/05/13 06:10:13;;;;;;;5.55;1.70;;;;;;;;;;5054170;28;20451;-76
2022/05/13 06:12:39;;;;;;;4.30;1.50;;;;;;;;;;5053689;28;20074;-77
2022/05/13 06:15:05;;;;;;;7.15;2.38;;;;;;;;;;5070625;28;20024;-77
2022/05/13 06:17:30;;;;;;;3.90;1.40;;;;;;;;;;5071744;28;20115;-76
2022/05/13 06:19:56;;;;;;;4.82;1.92;;;;;;;;;;5071622;28;20044;-76
2022/05/13 06:22:21;;;;;;;4.75;1.70;;;;;;;;;;5071743;28;20511;-76
2022/05/13 06:24:47;;;;;;;2.72;1.40;;;;;;;;;;5071885;28;20025;-77
2022/05/13 06:27:12;;;;;;;4.30;1.55;;;;;;;;;;5071745;28;20024;-76
2022/05/13 06:29:38;;;;;;;4.07;1.90;;;;;;;;;;5071581;28;20036;-76
2022/05/13 06:32:06;;;;;;;4.22;1.73;;;;;;;;;;5070204;28;20029;-76
2022/05/13 06:34:32;;;;;;;4.43;1.70;;;;;;;;;;5070532;28;20340;-76
2022/05/13 06:36:57;;;;;;;5.20;1.80;;;;;;;;;;5053843;28;20075;-77
2022/05/13 06:39:23;;;;;;;4.82;1.58;;;;;;;;;;5053601;28;20032;-77
2022/05/13 06:41:48;;;;;;;4.65;1.60;;;;;;;;;;5053264;28;20343;-76
2022/05/13 06:44:15;;;;;;;4.00;1.58;;;;;;;;;;5053571;28;20067;-77
2022/05/13 06:46:41;;;;;;;10.63;2.00;;;;;;;;;;5071603;28;20082;-76
2022/05/13 06:49:07;;;;;;;7.03;1.85;;;;;;;;;;5070344;28;20025;-76
2022/05/13 06:51:33;;;;;;;5.10;1.65;;;;;;;;;;5070472;28;20040;-76
2022/05/13 06:54:03;;;;;;;4.80;1.80;;;;;;;;;;5071601;28;20410;-77
2022/05/13 06:56:32;;;;;;;6.57;1.40;;;;;;;;;;5053542;28;20032;-77
2022/05/13 06:58:58;;;;;;;4.47;1.70;;;;;;;;;;5053659;28;20138;-76
2022/05/13 07:01:24;;;;;;;6.70;1.90;;;;;;;;;;5053440;28;20495;-77
2022/05/13 07:03:49;;;;;;;4.75;1.27;;;;;;;;;;5071701;28;20032;-76
2022/05/13 07:06:15;;;;;;;9.23;2.45;;;;;;;;;;5072914;28;20455;-76
2022/05/13 07:08:40;;;;;;;6.30;2.00;;;;;;;;;;5074575;28;20028;-78
2022/05/13 07:11:06;;;;;;;11.77;2.55;;;;;;;;;;5073315;28;20020;-77
2022/05/13 07:13:32;;;;;;;8.85;1.80;;;;;;;;;;5074198;28;20036;-77
2022/05/13 07:15:58;;;;;;;6.53;2.45;;;;;;;;;;5074375;28;20028;-78
2022/05/13 07:18:23;;;;;;;7.00;2.10;;;;;;;;;;5074368;28;20098;-76
2022/05/13 07:20:49;;;;;;;6.03;1.75;;;;;;;;;;5056391;28;20028;-79
2022/05/13 07:23:15;;;;;;;14.07;1.60;;;;;;;;;;5056369;28;20029;-82
2022/05/13 07:25:40;;;;;;;11.65;2.10;;;;;;;;;;5056905;28;20345;-83
2022/05/13 07:28:06;;;;;;;6.30;1.67;;;;;;;;;;5073157;28;20032;-81
2022/05/13 07:30:32;;;;;;;5.53;1.90;;;;;;;;;;5055987;28;20062;-79
2022/05/13 07:32:57;;;;;;;5.28;1.30;;;;;;;;;;5073908;28;20047;-78
2022/05/13 07:35:22;;;;;;;5.18;1.23;;;;;;;;;;5072474;28;20037;-79
2022/05/13 07:37:48;;;;;;;4.57;1.63;;;;;;;;;;5072449;28;20024;-78
2022/05/13 07:42:57;;;;;;;;;;;;;;;;;;5073289;28;20058;-79
2022/05/13 07:45:22;;;;;;;8.80;1.67;;;;;;;;;;5055570;28;19913;-77
2022/05/13 07:47:48;;;;;;;6.10;1.73;;;;;;;;;;5072288;28;20025;-77
2022/05/13 07:50:14;;;;;;;4.68;1.35;;;;;;;;;;5074050;28;20095;-78
2022/05/13 07:52:41;;;;;;;5.95;1.55;;;;;;;;;;5072389;28;20513;-77
2022/05/13 07:55:11;;;;;;;3.75;1.48;;;;;;;;;;5072503;28;20025;-78
2022/05/13 07:57:38;;;;;;;7.55;1.50;;;;;;;;;;5056031;28;20508;-77
2022/05/13 08:02:49;;;;;;;3.72;1.63;;;;;;;;;;5074267;28;20106;-78
2022/05/13 08:05:14;;;;;;;3.50;1.50;;;;;;;;;;5073922;28;20050;-78
2022/05/13 08:07:39;;;;;;;5.80;1.27;;;;;;;;;;5072376;28;20032;-78
2022/05/13 08:10:05;;;;;;;6.35;1.65;;;;;;;;;;5072342;28;20036;-80
2022/05/13 08:12:31;;;;;;;4.03;1.40;;;;;;;;;;5071982;28;20108;-78
2022/05/13 08:14:56;;;;;;;8.50;2.17;;;;;;;;;;5073509;28;20428;-78
2022/05/13 08:17:21;;;;;;;5.70;1.55;;;;;;;;;;5071791;28;20040;-77
2022/05/13 08:19:47;;;;;;;9.30;1.40;;;;;;;;;;5055490;28;20123;-77
2022/05/13 08:22:12;;;;;;;8.18;1.30;;;;;;;;;;5072454;28;20029;-78
2022/05/13 08:24:38;;;;;;;14.10;2.25;;;;;;;;;;5073510;28;20035;-77
2022/05/13 08:27:04;;;;;;;32.17;3.17;;;;;;;;;;5055146;28;20064;-77
2022/05/13 08:29:29;;;;;;;4.47;1.30;;;;;;;;;;5073146;28;20032;-79
2022/05/13 08:31:55;;;;;;;8.63;1.60;;;;;;;;;;5071602;28;20024;-77
2022/05/13 08:34:20;;;;;;;5.45;1.30;;;;;;;;;;5073603;28;20478;-77
2022/05/13 08:36:46;;;;;;;7.05;1.30;;;;;;;;;;5073351;28;20024;-79
2022/05/13 08:39:11;;;;;;;4.75;1.13;;;;;;;;;;5054611;28;20032;-79
2022/05/13 08:41:52;;;;;;;7.93;1.33;;;;;;;;;;5071543;28;20032;-78
2022/05/13 08:44:18;;;;;;;5.35;1.42;;;;;;;;;;5072781;28;20135;-80
2022/05/13 08:47:26;;;;;;;8.10;2.17;;;;;;;;;;5054441;28;20029;-81
2022/05/13 08:49:55;;;;;;;4.47;1.52;;;;;;;;;;5055441;28;20036;-81
2022/05/13 08:55:26;;;;;;;4.68;1.45;;;;;;;;;;5072530;28;20074;-80
2022/05/13 08:57:54;;;;;;;6.45;1.15;;;;;;;;;;5054570;28;20036;-80
2022/05/13 09:00:33;;;;;;;6.55;1.48;;;;;;;;;;5072140;28;20142;-81
2022/05/13 09:03:26;;;;;;;4.53;1.10;;;;;;;;;;5071401;28;20028;-81
2022/05/13 09:06:06;;;;;;;5.60;1.17;;;;;;;;;;5044996;28;20044;-80
2022/05/13 09:08:33;;;;;;;3.78;1.63;;;;;;;;;;5072505;28;20043;-78
2022/05/13 09:11:12;;;;;;;8.80;1.60;;;;;;;;;;5054859;28;20028;-80
2022/05/13 09:13:50;;;;;;;5.90;1.08;;;;;;;;;;5071297;28;20389;-82
2022/05/13 09:16:43;;;;;;;3.28;1.02;;;;;;;;;;5071058;28;20020;-80
2022/05/13 09:19:16;;;;;;;4.85;1.45;;;;;;;;;;5061447;28;20047;-81
2022/05/13 09:21:43;;;;;;;3.37;1.17;;;;;;;;;;5072484;28;20094;-81
2022/05/13 09:24:09;;;;;;;2.47;0.88;;;;;;;;;;5072236;28;20021;-81
2022/05/13 09:26:34;;;;;;;4.85;1.20;;;;;;;;;;5072637;28;20490;-80
2022/05/13 09:29:14;;;;;;;3.53;0.98;;;;;;;;;;5053198;28;20043;-81
2022/05/13 09:31:54;;;;;;;6.28;1.45;;;;;;;;;;5072018;28;20039;-84
2022/05/13 09:34:47;;;;;;;13.98;1.73;;;;;;;;;;5072626;28;20032;-82
2022/05/13 09:37:20;;;;;;;2.55;1.10;;;;;;;;;;5072026;28;20036;-82
2022/05/13 09:39:48;;;;;;;3.42;1.30;;;;;;;;;;5071657;28;20107;-82
2022/05/13 09:42:22;;;;;;;3.35;1.30;;;;;;;;;;5071589;28;20024;-81
2022/05/13 09:44:48;;;;;;;7.25;1.40;;;;;;;;;;5072175;28;20429;-82
2022/05/13 09:47:24;;;;;;;2.88;1.20;;;;;;;;;;5054272;28;20029;-81
2022/05/13 09:49:50;;;;;;;3.60;1.65;;;;;;;;;;5070975;28;20027;-81
2022/05/13 09:52:17;;;;;;;5.72;1.20;;;;;;;;;;5070834;28;20474;-82
2022/05/13 09:54:46;;;;;;;4.55;1.40;;;;;;;;;;5071139;28;20039;-82
2022/05/13 09:57:22;;;;;;;4.25;1.08;;;;;;;;;;5070894;28;20462;-82
2022/05/13 10:00:00;;;;;;;5.53;1.80;;;;;;;;;;5054796;28;20082;-82
2022/05/13 10:02:39;;;;;;;3.25;0.95;;;;;;;;;;5072230;28;20024;-82
2022/05/13 10:05:21;;;;;;;5.18;1.10;;;;;;;;;;5071251;28;20360;-82
2022/05/13 10:07:53;;;;;;;2.00;0.95;;;;;;;;;;5053843;28;20043;-82
2022/05/13 10:16:04;;;;;;;;;;;;;;;;;;5071766;28;20115;-82
2022/05/13 10:18:30;;;;;;;5.80;1.07;;;;;;;;;;5070722;28;19991;-83
2022/05/13 10:21:11;;;;;;;5.70;1.17;;;;;;;;;;5070824;28;20257;-83
2022/05/13 10:23:42;;;;;;;4.28;1.35;;;;;;;;;;5053909;28;20540;-82
2022/05/13 10:26:14;;;;;;;3.47;0.98;;;;;;;;;;5053776;28;20033;-82
2022/05/13 10:28:49;;;;;;;3.70;1.02;;;;;;;;;;5054094;28;20032;-82
2022/05/13 10:31:21;;;;;;;5.07;1.08;;;;;;;;;;5055634;28;20021;-82
2022/05/13 10:33:50;;;;;;;4.88;1.00;;;;;;;;;;5055350;28;20051;-82
2022/05/13 10:36:26;;;;;;;4.30;1.00;;;;;;;;;;5073717;28;20025;-82
2022/05/13 10:39:19;;;;;;;2.05;1.00;;;;;;;;;;5073533;28;20386;-82
2022/05/13 10:41:52;;;;;;;3.17;0.93;;;;;;;;;;5059817;28;20203;-81
2022/05/13 10:44:26;;;;;;;8.55;1.08;;;;;;;;;;5074512;28;20123;-81
2022/05/13 10:46:57;;;;;;;5.82;1.35;;;;;;;;;;5057398;28;20429;-79
2022/05/13 10:49:34;;;;;;;4.05;1.10;;;;;;;;;;5074105;28;20029;-85
2022/05/13 10:52:02;;;;;;;4.22;1.38;;;;;;;;;;5073593;28;20016;-81
2022/05/13 10:54:43;;;;;;;6.63;1.23;;;;;;;;;;5075230;28;20099;-82
2022/05/13 10:57:40;;;;;;;8.60;1.38;;;;;;;;;;5056920;28;20024;-83
2022/05/13 11:00:17;;;;;;;3.75;1.02;;;;;;;;;;5057968;28;20042;-81
2022/05/13 11:02:48;;;;;;;1.75;1.02;;;;;;;;;;5073785;28;20025;-83
2022/05/13 11:05:21;;;;;;;4.45;1.10;;;;;;;;;;5057058;28;20098;-83
2022/05/13 11:08:08;;;;;;;5.72;1.38;;;;;;;;;;5056957;28;20474;-83
2022/05/13 11:11:03;;;;;;;5.60;1.45;;;;;;;;;;5057164;28;20028;-81
2022/05/13 11:13:50;;;;;;;3.40;1.40;;;;;;;;;;5075000;28;20416;-82
2022/05/13 11:16:38;;;;;;;1.95;0.95;;;;;;;;;;5073760;28;20029;-83
2022/05/13 11:19:16;;;;;;;2.47;1.05;;;;;;;;;;5073570;28;20031;-82
2022/05/13 11:22:01;;;;;;;3.53;1.73;;;;;;;;;;5073406;28;20057;-82
2022/05/13 11:27:45;;;;;;;2.20;1.20;;;;;;;;;;5075112;28;20116;-81
2022/05/13 11:30:38;;;;;;;2.55;0.90;;;;;;;;;;5056833;28;20474;-79
2022/05/13 11:33:43;;;;;;;3.03;1.20;;;;;;;;;;5073057;28;20031;-77
2022/05/13 11:36:30;;;;;;;1.40;0.90;;;;;;;;;;5074526;28;20051;-78
2022/05/13 11:39:06;;;;;;;2.45;1.00;;;;;;;;;;5074746;28;20028;-79
2022/05/13 11:41:47;;;;;;;1.60;1.05;;;;;;;;;;5056605;28;20130;-80
2022/05/13 11:44:14;;;;;;;3.25;1.05;;;;;;;;;;5056833;28;20455;-78
2022/05/13 11:46:52;;;;;;;4.47;1.70;;;;;;;;;;5074858;28;20491;-80
2022/05/13 11:49:35;;;;;;;2.30;1.15;;;;;;;;;;5056497;28;20028;-78
2022/05/13 11:52:13;;;;;;;3.67;1.27;;;;;;;;;;5072215;28;20027;-79
2022/05/13 11:54:41;;;;;;;3.28;1.30;;;;;;;;;;5074685;28;20040;-79
2022/05/13 11:57:28;;;;;;;7.47;1.27;;;;;;;;;;5055962;28;20127;-79
2022/05/13 12:00:14;;;;;;;1.83;1.10;;;;;;;;;;5072880;28;20093;-79
2022/05/13 12:02:53;;;;;;;4.72;1.13;;;;;;;;;;5073977;28;20048;-80
2022/05/13 12:05:18;;;;;;;1.85;0.93;;;;;;;;;;5072515;28;20024;-79
2022/05/13 12:08:08;;;;;;;2.30;1.20;;;;;;;;;;5052353;28;20036;-79
2022/05/13 12:11:02;;;;;;;8.45;1.27;;;;;;;;;;5074145;28;20089;-80
2022/05/13 12:13:39;;;;;;;2.67;0.90;;;;;;;;;;5055657;28;20028;-80
2022/05/13 12:16:14;;;;;;;2.40;1.10;;;;;;;;;;5073617;28;20028;-80
2022/05/13 12:18:46;;;;;;;3.85;1.02;;;;;;;;;;5056095;28;20115;-80
2022/05/13 12:21:24;;;;;;;3.67;1.40;;;;;;;;;;5072514;28;20090;-80
2022/05/13 12:23:55;;;;;;;3.00;1.05;;;;;;;;;;5073755;28;20033;-80
2022/05/13 12:26:24;;;;;;;2.10;1.40;;;;;;;;;;5055877;28;20067;-80
2022/05/13 12:28:55;;;;;;;1.83;1.05;;;;;;;;;;5072748;28;20025;-81
2022/05/13 12:31:27;;;;;;;4.25;0.98;;;;;;;;;;5073800;28;20082;-80
2022/05/13 12:37:33;;;;;;;1.48;1.00;;;;;;;;;;5073446;28;20040;-80
2022/05/13 12:39:46;;;;;;;2.28;0.88;;;;;;;;;;5058456;28;20116;-80
2022/05/13 12:42:13;;;;;;;2.53;0.95;;;;;;;;;;5072281;28;20033;-80
2022/05/13 12:44:57;;;;;;;1.42;0.90;;;;;;;;;;5038643;28;20033;-80
2022/05/13 12:47:26;;;;;;;6.22;1.10;;;;;;;;;;5055248;28;20102;-80
2022/05/13 12:49:57;;;;;;;2.22;0.90;;;;;;;;;;5073628;28;20360;-80
2022/05/13 12:52:44;;;;;;;5.65;1.00;;;;;;;;;;5071873;28;20057;-79
2022/05/13 12:55:20;;;;;;;1.10;0.85;;;;;;;;;;5038898;28;20082;-79
2022/05/13 12:57:52;;;;;;;1.73;1.00;;;;;;;;;;5055205;28;20115;-79
2022/05/13 13:00:24;;;;;;;2.78;1.33;;;;;;;;;;5055017;28;20024;-80
2022/05/13 13:02:54;;;;;;;1.55;1.05;;;;;;;;;;5071585;28;20024;-79
2022/05/13 13:05:35;;;;;;;2.85;1.00;;;;;;;;;;5071246;28;20020;-80
2022/05/13 13:08:11;;;;;;;2.58;1.05;;;;;;;;;;5054508;28;20024;-80
2022/05/13 13:10:55;;;;;;;2.00;1.00;;;;;;;;;;5071337;28;20099;-79
2022/05/13 13:13:33;;;;;;;;;;;;;;;;;;5054957;28;20442;-80
2022/05/13 13:16:02;;;;;;;3.65;0.88;;;;;;;;;;5054418;28;19954;-80
2022/05/13 13:18:33;;;;;;;1.58;1.08;;;;;;;;;;5072398;28;20028;-79
2022/05/13 13:21:00;;;;;;;1.90;1.02;;;;;;;;;;5072721;28;20067;-79
2022/05/13 13:23:32;;;;;;;3.47;1.05;;;;;;;;;;5054475;28;20025;-80
2022/05/13 13:25:58;;;;;;;1.20;0.90;;;;;;;;;;5074255;28;20456;-79
2022/05/13 13:28:28;;;;;;;3.08;0.90;;;;;;;;;;5056854;28;20185;-79
2022/05/13 13:30:56;;;;;;;2.38;1.20;;;;;;;;;;5074764;28;20032;-79
2022/05/13 13:33:27;;;;;;;1.25;0.90;;;;;;;;;;5074471;28;20047;-79
2022/05/13 13:36:04;;;;;;;2.60;1.05;;;;;;;;;;5055318;28;20109;-79
2022/05/13 13:38:29;;;;;;;3.03;1.20;;;;;;;;;;5055170;28;20035;-79
2022/05/13 13:40:55;;;;;;;2.35;1.05;;;;;;;;;;5055164;28;20359;-80
2022/05/13 13:43:26;;;;;;;2.22;1.05;;;;;;;;;;5072140;28;20067;-80
2022/05/13 13:45:54;;;;;;;2.58;0.95;;;;;;;;;;5070615;28;20478;-80
2022/05/13 13:48:27;;;;;;;2.10;1.10;;;;;;;;;;5071964;28;20035;-80
2022/05/13 13:50:53;;;;;;;1.60;1.00;;;;;;;;;;5070824;28;20090;-80
2022/05/13 13:53:41;;;;;;;1.98;1.13;;;;;;;;;;5053860;28;20052;-79
2022/05/13 13:56:12;;;;;;;2.35;1.27;;;;;;;;;;5038995;28;20410;-80
2022/05/13 13:58:42;;;;;;;2.50;0.95;;;;;;;;;;5053983;28;20100;-80
2022/05/13 14:01:18;;;;;;;2.55;1.10;;;;;;;;;;5053922;28;20033;-79
2022/05/13 14:03:44;;;;;;;2.80;0.93;;;;;;;;;;5054163;28;20378;-80
2022/05/13 14:06:24;;;;;;;2.05;1.38;;;;;;;;;;5053567;28;20491;-80
2022/05/13 14:08:51;;;;;;;2.00;1.10;;;;;;;;;;5054175;28;20082;-81
2022/05/13 14:11:20;;;;;;;2.75;1.20;;;;;;;;;;5070322;28;20025;-80
2022/05/13 14:13:48;;;;;;;1.75;0.98;;;;;;;;;;5053649;28;20020;-80
2022/05/13 14:16:17;;;;;;;2.35;1.10;;;;;;;;;;5070053;28;20028;-80
2022/05/13 14:18:43;;;;;;;3.10;1.25;;;;;;;;;;5070705;28;20020;-80
2022/05/13 14:21:13;;;;;;;6.78;1.33;;;;;;;;;;5054559;28;20075;-80
2022/05/13 14:23:39;;;;;;;1.95;1.23;;;;;;;;;;5053751;28;20036;-80
2022/05/13 14:26:07;;;;;;;1.52;1.02;;;;;;;;;;5055101;28;20168;-80
2022/05/13 14:28:42;;;;;;;2.90;1.20;;;;;;;;;;5054611;28;20054;-80
2022/05/13 14:31:18;;;;;;;1.27;1.00;;;;;;;;;;5037750;28;20024;-80
2022/05/13 14:33:51;;;;;;;3.40;1.10;;;;;;;;;;5070759;28;20471;-80
2022/05/13 14:36:18;;;;;;;5.68;1.40;;;;;;;;;;5070800;28;20037;-80
2022/05/13 14:41:49;;;;;;;2.03;0.85;;;;;;;;;;5071008;28;20043;-80
2022/05/13 14:44:41;;;;;;;1.95;0.90;;;;;;;;;;5053958;28;20368;-80
2022/05/13 14:47:15;;;;;;;7.50;1.20;;;;;;;;;;5068985;28;20518;-81
2022/05/13 14:49:40;;;;;;;3.70;1.20;;;;;;;;;;5070110;28;20058;-81
2022/05/13 14:52:06;;;;;;;5.13;1.55;;;;;;;;;;5053279;28;20125;-81
2022/05/13 14:54:33;;;;;;;1.83;1.20;;;;;;;;;;5070036;28;20028;-81
2022/05/13 14:57:05;;;;;;;4.35;1.30;;;;;;;;;;5070128;28;20028;-81
2022/05/13 14:59:42;;;;;;;1.77;1.48;;;;;;;;;;5069972;28;20490;-80
2022/05/13 15:02:10;;;;;;;1.42;0.90;;;;;;;;;;5052858;28;20519;-81
2022/05/13 15:04:38;;;;;;;2.53;1.00;;;;;;;;;;5070016;28;20459;-81
2022/05/13 15:07:19;;;;;;;6.93;1.25;;;;;;;;;;5036391;28;20028;-81
2022/05/13 15:09:45;;;;;;;2.90;1.20;;;;;;;;;;5036742;28;20416;-81
2022/05/13 15:12:10;;;;;;;2.25;0.90;;;;;;;;;;5070345;28;20039;-82
2022/05/13 15:14:37;;;;;;;1.40;0.88;;;;;;;;;;5053177;28;20538;-82
2022/05/13 15:17:04;;;;;;;2.83;1.40;;;;;;;;;;5071167;28;20033;-79
2022/05/13 15:19:30;;;;;;;1.60;1.08;;;;;;;;;;5070007;28;20036;-80
2022/05/13 15:21:58;;;;;;;4.05;1.25;;;;;;;;;;5069676;28;20033;-80
2022/05/13 15:24:25;;;;;;;3.90;1.20;;;;;;;;;;5053505;28;20443;-80
2022/05/13 15:26:51;;;;;;;3.72;1.52;;;;;;;;;;5070925;28;20043;-79
2022/05/13 15:29:17;;;;;;;1.27;0.98;;;;;;;;;;5073336;28;20035;-79
2022/05/13 15:31:42;;;;;;;1.27;1.17;;;;;;;;;;5040020;28;20484;-79
2022/05/13 15:34:08;;;;;;;2.80;1.23;;;;;;;;;;5074661;28;20074;-79
2022/05/13 15:36:33;;;;;;;1.58;1.00;;;;;;;;;;5074518;28;20462;-79
2022/05/13 15:38:59;;;;;;;2.55;1.00;;;;;;;;;;5073168;28;20039;-80